Pagina principale
METAR-TAF:

METAR-TAF

Aeroporti :

Aeroporto di Dakar-Léopold Sedar Senghor

Dakar, Senegal

latitudine: 14-44N, longitudine: 017-30W, altezza: 27 m

Osservazione

Il bollettino è stato emesso 26 minuti fa, alle 15:00 UTC
Vento 10 kt da nord-est
Temperature 25°C
Umidità 57%
Pressione 1012 hPa
Visibilità: 8000 m

METAR: GOOY 091500Z 04010KT 8000 NSC 25/16 Q1012

Ora: 15:26 (15:26 UTC)

Previsione

Il bollettino è stato emesso 3 ore e 56 minuti fa, alle 11:30 UTC
Previsione valida dal 09 alle 12 UTC al 10 alle 18 UTC
Vento 12 kt da nord/nord-est
Visibilità 10 km o più
nessuna nube inferiore a 1500 m e nessun cumulonembo

TAF: GOOY 091130Z 0912/1018 02012KT CAVOK

Osservazioni e previsioni meteorologiche di più di 4000 aeroporti (messaggi METAR e TAF).

Le stazioni disponibili sono rappresentate dai dischi gialli e rossi sulla carta.

Puntare il mouse per vedere il nome della stazione.

Clicca sopra per visualizzare le osservazioni e previsioni meteorologiche.

Per cambiare la mappa : fare clic sui pulsanti verdi con una croce nera per ingrandire, il pulsante verde con un trattino per diminuire, o sulla freccia verde per le mappe adiacenti.


METAR-TAF: